メインページ
METAR-TAF:

METAR-TAF

空港 :

ホーチミン, ベトナム

タンソンニャット国際空港

緯度: 10-49N, 経度: 106-40E, 海抜: 19m

現時点の気象観測

当レポートは34分前の12:30(UTC)に作成
変向風 2kt
気温 26°C
湿度 94%
気圧 1009 hPa
視程10km以上
高度1500ftの雲は散在している
高度5000ftの千切れ雲あり

METAR: VVTS 241230Z VRB02KT 9999 SCT015 BKN050 26/25 Q1009 NOSIG

時間: 20:04 (13:04 UTC)

予報

当レポートは2時間4分前の11:00(UTC)に作成
予報は24日の 12時(UTC)から 25日の 18時(UTC)まで有効
北東の風 10kt
視程10km以上
高度1500ftの雲は散在している
高度4000ftの千切れ雲あり
25日の 06時(UTC)から 25日の 12時(UTC)まで一時的に
視程: 5000m
高度1500ftの雲は散在している
高度1700ftの雲はほとんどない, 積乱雲.
高度4000ftの千切れ雲あり
にわか雨

TAF: VVTS 241100Z 2412/2518 05010KT 9999 SCT015 BKN040 TEMPO 2506/2512 5000 SHRA SCT015 FEW017CB BKN040

4,000以上の空港の気象観測と天気予報(METAR報とTAF報)

利用可能な観測所は地図上に黄色い丸と赤い丸で示す。

丸の上にカーソルを重ねると観測所名を参照できる。

次にクリックすると気象観測と天気予報を参照できる。

マップの切り替え:黒色「×」印の緑ボタンをクリックして拡大、「-」印の緑ボタンをクリックして縮小、緑色の三角印をクリックして隣りの地図に切り替え


METAR-TAF: